sensor_id;sensor_type;location;lat;lon;timestamp;pressure;altitude;pressure_sealevel;temperature;humidity
70982;BME280;58640;51.320;9.456;2023-02-19T00:00:28;99370.25;;;8.61;100.00
70982;BME280;58640;51.320;9.456;2023-02-19T00:02:54;99359.69;;;8.76;100.00
70982;BME280;58640;51.320;9.456;2023-02-19T00:05:22;99348.97;;;8.76;100.00
70982;BME280;58640;51.320;9.456;2023-02-19T00:07:47;99353.19;;;8.78;100.00
70982;BME280;58640;51.320;9.456;2023-02-19T00:10:13;99348.97;;;8.68;100.00
70982;BME280;58640;51.320;9.456;2023-02-19T00:12:38;99350.66;;;8.77;100.00
70982;BME280;58640;51.320;9.456;2023-02-19T00:15:04;99355.53;;;8.81;100.00
70982;BME280;58640;51.320;9.456;2023-02-19T00:17:30;99365.25;;;8.82;100.00
70982;BME280;58640;51.320;9.456;2023-02-19T00:19:55;99361.91;;;8.88;100.00
70982;BME280;58640;51.320;9.456;2023-02-19T00:22:20;99360.38;;;8.94;100.00
70982;BME280;58640;51.320;9.456;2023-02-19T00:24:47;99353.69;;;8.90;100.00
70982;BME280;58640;51.320;9.456;2023-02-19T00:27:12;99350.00;;;8.83;100.00
70982;BME280;58640;51.320;9.456;2023-02-19T00:29:38;99339.94;;;8.77;100.00
70982;BME280;58640;51.320;9.456;2023-02-19T00:32:03;99330.88;;;8.78;100.00
70982;BME280;58640;51.320;9.456;2023-02-19T00:34:29;99326.53;;;8.77;100.00
70982;BME280;58640;51.320;9.456;2023-02-19T00:36:54;99326.03;;;8.73;100.00
70982;BME280;58640;51.320;9.456;2023-02-19T00:39:19;99315.13;;;8.75;100.00
70982;BME280;58640;51.320;9.456;2023-02-19T00:41:45;99312.97;;;8.86;100.00
70982;BME280;58640;51.320;9.456;2023-02-19T00:44:11;99301.88;;;8.98;100.00
70982;BME280;58640;51.320;9.456;2023-02-19T00:46:40;99304.88;;;9.19;100.00
70982;BME280;58640;51.320;9.456;2023-02-19T00:49:06;99304.56;;;9.06;100.00
70982;BME280;58640;51.320;9.456;2023-02-19T00:51:34;99302.56;;;9.00;100.00
70982;BME280;58640;51.320;9.456;2023-02-19T00:54:01;99311.28;;;8.77;100.00
70982;BME280;58640;51.320;9.456;2023-02-19T00:56:26;99307.41;;;8.72;100.00
70982;BME280;58640;51.320;9.456;2023-02-19T00:58:52;99305.09;;;8.77;100.00
70982;BME280;58640;51.320;9.456;2023-02-19T01:01:18;99295.19;;;8.69;100.00
70982;BME280;58640;51.320;9.456;2023-02-19T01:03:44;99297.53;;;8.56;100.00
70982;BME280;58640;51.320;9.456;2023-02-19T01:06:12;99300.38;;;8.55;100.00
70982;BME280;58640;51.320;9.456;2023-02-19T01:08:38;99300.38;;;8.55;100.00
70982;BME280;58640;51.320;9.456;2023-02-19T01:11:04;99301.88;;;8.57;100.00
70982;BME280;58640;51.320;9.456;2023-02-19T01:13:30;99302.06;;;8.64;100.00
70982;BME280;58640;51.320;9.456;2023-02-19T01:16:13;99298.03;;;8.68;100.00
70982;BME280;58640;51.320;9.456;2023-02-19T01:18:39;99300.88;;;8.66;100.00
70982;BME280;58640;51.320;9.456;2023-02-19T01:21:10;99297.72;;;8.71;100.00
70982;BME280;58640;51.320;9.456;2023-02-19T01:23:36;99291.66;;;8.53;100.00
70982;BME280;58640;51.320;9.456;2023-02-19T01:26:05;99286.97;;;8.47;100.00
70982;BME280;58640;51.320;9.456;2023-02-19T01:28:32;99277.75;;;8.41;100.00
70982;BME280;58640;51.320;9.456;2023-02-19T01:31:02;99277.06;;;8.47;100.00
70982;BME280;58640;51.320;9.456;2023-02-19T01:33:28;99283.63;;;8.53;100.00
70982;BME280;58640;51.320;9.456;2023-02-19T01:35:53;99277.25;;;8.46;100.00
70982;BME280;58640;51.320;9.456;2023-02-19T01:38:18;99257.16;;;8.42;100.00
70982;BME280;58640;51.320;9.456;2023-02-19T01:40:44;99256.13;;;8.59;100.00
70982;BME280;58640;51.320;9.456;2023-02-19T01:43:14;99257.31;;;8.48;100.00
70982;BME280;58640;51.320;9.456;2023-02-19T01:45:43;99259.84;;;8.58;100.00
70982;BME280;58640;51.320;9.456;2023-02-19T01:50:49;99260.69;;;8.50;100.00
70982;BME280;58640;51.320;9.456;2023-02-19T01:53:19;99256.13;;;8.43;100.00
70982;BME280;58640;51.320;9.456;2023-02-19T01:55:47;99246.25;;;8.35;100.00
70982;BME280;58640;51.320;9.456;2023-02-19T01:58:15;99267.34;;;8.38;100.00
70982;BME280;58640;51.320;9.456;2023-02-19T02:00:41;99252.63;;;8.34;100.00
70982;BME280;58640;51.320;9.456;2023-02-19T02:03:06;99250.94;;;8.41;100.00
70982;BME280;58640;51.320;9.456;2023-02-19T02:05:39;99257.47;;;8.39;100.00
70982;BME280;58640;51.320;9.456;2023-02-19T02:08:06;99252.94;;;8.55;100.00
70982;BME280;58640;51.320;9.456;2023-02-19T02:10:50;99252.78;;;8.57;100.00
70982;BME280;58640;51.320;9.456;2023-02-19T02:13:17;99261.84;;;8.64;100.00
70982;BME280;58640;51.320;9.456;2023-02-19T02:16:05;99256.31;;;8.65;100.00
70982;BME280;58640;51.320;9.456;2023-02-19T02:35:20;99235.00;;;8.96;100.00
70982;BME280;58640;51.320;9.456;2023-02-19T02:37:47;99233.63;;;9.08;100.00
70982;BME280;58640;51.320;9.456;2023-02-19T02:40:13;99231.97;;;8.91;100.00
70982;BME280;58640;51.320;9.456;2023-02-19T02:42:39;99223.38;;;9.12;100.00
70982;BME280;58640;51.320;9.456;2023-02-19T02:50:46;99230.78;;;8.93;100.00
70982;BME280;58640;51.320;9.456;2023-02-19T02:53:19;99215.56;;;8.78;100.00
70982;BME280;58640;51.320;9.456;2023-02-19T02:56:04;99225.31;;;8.79;100.00
70982;BME280;58640;51.320;9.456;2023-02-19T02:58:31;99225.94;;;8.81;100.00
70982;BME280;58640;51.320;9.456;2023-02-19T03:01:08;99217.72;;;8.99;100.00
70982;BME280;58640;51.320;9.456;2023-02-19T03:04:00;99222.91;;;8.92;100.00
70982;BME280;58640;51.320;9.456;2023-02-19T03:06:30;99222.75;;;8.93;100.00
70982;BME280;58640;51.320;9.456;2023-02-19T03:09:08;99217.38;;;8.93;100.00
70982;BME280;58640;51.320;9.456;2023-02-19T03:11:37;99209.19;;;8.95;100.00
70982;BME280;58640;51.320;9.456;2023-02-19T03:14:29;99218.22;;;8.94;100.00
70982;BME280;58640;51.320;9.456;2023-02-19T03:17:37;99203.47;;;9.06;100.00
70982;BME280;58640;51.320;9.456;2023-02-19T03:20:24;99216.06;;;8.89;100.00
70982;BME280;58640;51.320;9.456;2023-02-19T03:22:51;99210.22;;;8.78;100.00
70982;BME280;58640;51.320;9.456;2023-02-19T03:25:27;99214.06;;;8.75;100.00
70982;BME280;58640;51.320;9.456;2023-02-19T03:28:14;99213.56;;;8.80;100.00
70982;BME280;58640;51.320;9.456;2023-02-19T03:30:45;99212.72;;;8.79;100.00
70982;BME280;58640;51.320;9.456;2023-02-19T03:33:12;99205.88;;;8.77;100.00
70982;BME280;58640;51.320;9.456;2023-02-19T03:35:54;99204.34;;;8.74;100.00
70982;BME280;58640;51.320;9.456;2023-02-19T03:38:35;99208.69;;;8.83;100.00
70982;BME280;58640;51.320;9.456;2023-02-19T03:43:49;99222.63;;;8.87;100.00
70982;BME280;58640;51.320;9.456;2023-02-19T03:47:03;99225.13;;;8.97;100.00
70982;BME280;58640;51.320;9.456;2023-02-19T03:49:49;99231.97;;;8.91;100.00
70982;BME280;58640;51.320;9.456;2023-02-19T03:57:44;99241.06;;;8.82;100.00
70982;BME280;58640;51.320;9.456;2023-02-19T04:03:01;99259.84;;;8.82;100.00
70982;BME280;58640;51.320;9.456;2023-02-19T04:05:32;99260.97;;;8.87;100.00
70982;BME280;58640;51.320;9.456;2023-02-19T04:08:07;99253.78;;;8.96;100.00
70982;BME280;58640;51.320;9.456;2023-02-19T04:10:35;99245.38;;;8.99;100.00
70982;BME280;58640;51.320;9.456;2023-02-19T04:13:05;99245.69;;;9.12;100.00
70982;BME280;58640;51.320;9.456;2023-02-19T04:15:34;99259.97;;;9.05;100.00
70982;BME280;58640;51.320;9.456;2023-02-19T04:18:14;99256.44;;;9.12;99.04
70982;BME280;58640;51.320;9.456;2023-02-19T04:20:43;99259.75;;;9.30;98.49
70982;BME280;58640;51.320;9.456;2023-02-19T04:23:09;99256.31;;;8.81;100.00
70982;BME280;58640;51.320;9.456;2023-02-19T04:25:37;99256.09;;;8.99;99.26
70982;BME280;58640;51.320;9.456;2023-02-19T04:28:04;99264.16;;;8.99;99.75
70982;BME280;58640;51.320;9.456;2023-02-19T04:30:29;99261.13;;;9.02;99.65
70982;BME280;58640;51.320;9.456;2023-02-19T04:32:55;99261.97;;;9.11;98.78
70982;BME280;58640;51.320;9.456;2023-02-19T04:35:20;99268.16;;;9.03;100.00
70982;BME280;58640;51.320;9.456;2023-02-19T04:37:45;99281.28;;;8.82;100.00
70982;BME280;58640;51.320;9.456;2023-02-19T04:40:11;99268.38;;;8.77;100.00
70982;BME280;58640;51.320;9.456;2023-02-19T04:42:36;99281.72;;;9.18;99.50
70982;BME280;58640;51.320;9.456;2023-02-19T04:45:02;99291.13;;;9.14;100.00
70982;BME280;58640;51.320;9.456;2023-02-19T04:47:27;99291.63;;;9.17;98.87
70982;BME280;58640;51.320;9.456;2023-02-19T04:49:52;99287.25;;;9.16;97.99
70982;BME280;58640;51.320;9.456;2023-02-19T04:52:18;99286.81;;;8.97;98.76
70982;BME280;58640;51.320;9.456;2023-02-19T04:54:43;99294.00;;;8.96;98.96
70982;BME280;58640;51.320;9.456;2023-02-19T04:57:08;99292.47;;;8.93;97.50
70982;BME280;58640;51.320;9.456;2023-02-19T04:59:34;99282.25;;;8.97;96.91
70982;BME280;58640;51.320;9.456;2023-02-19T05:01:59;99289.97;;;8.68;98.72
70982;BME280;58640;51.320;9.456;2023-02-19T05:04:24;99290.66;;;8.70;98.12
70982;BME280;58640;51.320;9.456;2023-02-19T05:06:50;99290.81;;;8.76;98.27
70982;BME280;58640;51.320;9.456;2023-02-19T05:09:15;99288.47;;;8.73;96.94
70982;BME280;58640;51.320;9.456;2023-02-19T05:11:41;99301.38;;;8.54;98.08
70982;BME280;58640;51.320;9.456;2023-02-19T05:14:06;99295.03;;;8.55;98.54
70982;BME280;58640;51.320;9.456;2023-02-19T05:16:31;99297.72;;;8.63;97.69
70982;BME280;58640;51.320;9.456;2023-02-19T05:18:58;99296.88;;;8.78;96.00
70982;BME280;58640;51.320;9.456;2023-02-19T05:21:24;99321.00;;;8.86;95.81
70982;BME280;58640;51.320;9.456;2023-02-19T05:23:49;99318.66;;;8.92;95.92
70982;BME280;58640;51.320;9.456;2023-02-19T05:26:18;99327.53;;;8.76;97.00
70982;BME280;58640;51.320;9.456;2023-02-19T05:28:49;99326.72;;;8.83;97.10
70982;BME280;58640;51.320;9.456;2023-02-19T05:31:15;99322.31;;;8.74;97.57
70982;BME280;58640;51.320;9.456;2023-02-19T05:33:41;99337.78;;;8.88;96.44
70982;BME280;58640;51.320;9.456;2023-02-19T05:36:12;99338.09;;;8.77;97.78
70982;BME280;58640;51.320;9.456;2023-02-19T05:38:39;99340.78;;;8.77;97.98
70982;BME280;58640;51.320;9.456;2023-02-19T05:41:10;99349.50;;;8.87;97.31
70982;BME280;58640;51.320;9.456;2023-02-19T05:43:37;99353.69;;;8.82;96.76
70982;BME280;58640;51.320;9.456;2023-02-19T05:46:04;99354.34;;;8.92;96.58
70982;BME280;58640;51.320;9.456;2023-02-19T05:48:29;99364.09;;;9.01;95.52
70982;BME280;58640;51.320;9.456;2023-02-19T05:51:03;99357.88;;;8.93;96.63
70982;BME280;58640;51.320;9.456;2023-02-19T05:53:29;99356.56;;;8.88;97.00
70982;BME280;58640;51.320;9.456;2023-02-19T05:55:54;99365.41;;;8.89;96.32
70982;BME280;58640;51.320;9.456;2023-02-19T05:58:20;99367.91;;;8.74;97.67
70982;BME280;58640;51.320;9.456;2023-02-19T06:00:45;99358.34;;;8.64;97.52
70982;BME280;58640;51.320;9.456;2023-02-19T06:03:10;99365.06;;;8.76;97.12
70982;BME280;58640;51.320;9.456;2023-02-19T06:05:36;99367.91;;;8.66;96.54
70982;BME280;58640;51.320;9.456;2023-02-19T06:08:02;99384.50;;;8.62;98.63
70982;BME280;58640;51.320;9.456;2023-02-19T06:10:27;99389.03;;;8.61;97.42
70982;BME280;58640;51.320;9.456;2023-02-19T06:12:53;99391.66;;;8.45;99.13
70982;BME280;58640;51.320;9.456;2023-02-19T06:15:19;99399.19;;;8.42;99.55
70982;BME280;58640;51.320;9.456;2023-02-19T06:17:44;99399.22;;;8.50;99.18
70982;BME280;58640;51.320;9.456;2023-02-19T06:20:09;99401.13;;;8.81;98.16
70982;BME280;58640;51.320;9.456;2023-02-19T06:22:35;99398.94;;;8.69;97.86
70982;BME280;58640;51.320;9.456;2023-02-19T06:25:00;99407.09;;;8.51;99.29
70982;BME280;58640;51.320;9.456;2023-02-19T06:27:25;99415.44;;;8.40;99.75
70982;BME280;58640;51.320;9.456;2023-02-19T06:29:51;99419.22;;;8.79;96.27
70982;BME280;58640;51.320;9.456;2023-02-19T06:32:16;99425.25;;;8.73;96.43
70982;BME280;58640;51.320;9.456;2023-02-19T06:34:42;99424.41;;;8.81;96.88
70982;BME280;58640;51.320;9.456;2023-02-19T06:37:07;99429.97;;;8.96;95.23
70982;BME280;58640;51.320;9.456;2023-02-19T06:39:32;99431.31;;;8.83;95.94
70982;BME280;58640;51.320;9.456;2023-02-19T06:41:58;99437.19;;;8.87;95.70
70982;BME280;58640;51.320;9.456;2023-02-19T06:44:23;99429.28;;;8.85;94.47
70982;BME280;58640;51.320;9.456;2023-02-19T09:10:29;99698.44;;;8.76;88.86
70982;BME280;58640;51.320;9.456;2023-02-19T09:13:10;99700.84;;;8.36;89.39
70982;BME280;58640;51.320;9.456;2023-02-19T09:15:41;99707.59;;;8.40;89.24
70982;BME280;58640;51.320;9.456;2023-02-19T09:21:08;99716.47;;;8.23;91.17
70982;BME280;58640;51.320;9.456;2023-02-19T09:23:34;99715.53;;;8.15;91.27
70982;BME280;58640;51.320;9.456;2023-02-19T09:26:01;99709.38;;;7.70;92.69
70982;BME280;58640;51.320;9.456;2023-02-19T09:28:30;99721.34;;;7.93;91.19
70982;BME280;58640;51.320;9.456;2023-02-19T09:30:56;99732.06;;;7.93;90.91
70982;BME280;58640;51.320;9.456;2023-02-19T09:33:21;99738.19;;;7.58;92.94
70982;BME280;58640;51.320;9.456;2023-02-19T09:35:47;99743.03;;;7.55;93.27
70982;BME280;58640;51.320;9.456;2023-02-19T09:38:12;99752.16;;;7.79;91.24
70982;BME280;58640;51.320;9.456;2023-02-19T09:40:38;99753.81;;;7.63;92.50
70982;BME280;58640;51.320;9.456;2023-02-19T09:43:14;99759.44;;;7.60;93.16
70982;BME280;58640;51.320;9.456;2023-02-19T09:45:40;99767.69;;;7.48;94.14
70982;BME280;58640;51.320;9.456;2023-02-19T09:48:06;99776.25;;;7.52;94.54
70982;BME280;58640;51.320;9.456;2023-02-19T09:50:40;99783.59;;;7.50;93.96
70982;BME280;58640;51.320;9.456;2023-02-19T09:53:39;99791.06;;;7.56;94.30
70982;BME280;58640;51.320;9.456;2023-02-19T09:56:06;99791.06;;;7.56;93.83
70982;BME280;58640;51.320;9.456;2023-02-19T09:58:34;99785.34;;;7.69;91.69
70982;BME280;58640;51.320;9.456;2023-02-19T10:01:02;99796.97;;;7.50;92.54
70982;BME280;58640;51.320;9.456;2023-02-19T10:03:31;99805.56;;;7.54;92.34
70982;BME280;58640;51.320;9.456;2023-02-19T10:06:00;99805.44;;;7.45;92.58
70982;BME280;58640;51.320;9.456;2023-02-19T10:08:31;99808.56;;;7.41;94.31
70982;BME280;58640;51.320;9.456;2023-02-19T10:10:59;99806.72;;;7.51;94.39
70982;BME280;58640;51.320;9.456;2023-02-19T10:13:30;99819.34;;;7.59;94.13
70982;BME280;58640;51.320;9.456;2023-02-19T10:15:58;99822.53;;;7.72;92.93
70982;BME280;58640;51.320;9.456;2023-02-19T10:18:27;99822.47;;;7.81;92.37
70982;BME280;58640;51.320;9.456;2023-02-19T10:20:54;99830.00;;;7.68;91.32
70982;BME280;58640;51.320;9.456;2023-02-19T10:23:20;99839.03;;;7.67;92.47
70982;BME280;58640;51.320;9.456;2023-02-19T10:25:54;99849.22;;;7.91;91.06
70982;BME280;58640;51.320;9.456;2023-02-19T10:28:32;99838.28;;;7.75;91.97
70982;BME280;58640;51.320;9.456;2023-02-19T10:31:02;99846.47;;;8.00;90.83
70982;BME280;58640;51.320;9.456;2023-02-19T10:33:28;99848.47;;;8.25;91.21
70982;BME280;58640;51.320;9.456;2023-02-19T10:36:05;99856.59;;;8.33;89.66
70982;BME280;58640;51.320;9.456;2023-02-19T10:38:33;99858.38;;;8.42;89.33
70982;BME280;58640;51.320;9.456;2023-02-19T10:43:34;99875.69;;;8.21;89.88
70982;BME280;58640;51.320;9.456;2023-02-19T10:46:04;99877.81;;;8.17;89.87
70982;BME280;58640;51.320;9.456;2023-02-19T10:48:37;99890.19;;;8.01;90.85
70982;BME280;58640;51.320;9.456;2023-02-19T10:51:09;99897.78;;;7.69;92.05
70982;BME280;58640;51.320;9.456;2023-02-19T10:53:43;99896.72;;;7.89;91.65
70982;BME280;58640;51.320;9.456;2023-02-19T10:56:12;99893.16;;;7.98;91.02
70982;BME280;58640;51.320;9.456;2023-02-19T10:58:38;99901.81;;;7.82;92.25
70982;BME280;58640;51.320;9.456;2023-02-19T11:01:20;99906.34;;;7.82;93.09
70982;BME280;58640;51.320;9.456;2023-02-19T11:03:51;99914.75;;;7.87;92.80
70982;BME280;58640;51.320;9.456;2023-02-19T11:06:24;99923.47;;;7.52;95.75
70982;BME280;58640;51.320;9.456;2023-02-19T11:08:56;99916.81;;;7.75;94.23
70982;BME280;58640;51.320;9.456;2023-02-19T11:11:26;99918.66;;;8.02;92.97
70982;BME280;58640;51.320;9.456;2023-02-19T11:13:55;99913.91;;;7.96;92.09
70982;BME280;58640;51.320;9.456;2023-02-19T11:16:23;99918.41;;;8.22;91.47
70982;BME280;58640;51.320;9.456;2023-02-19T11:18:54;99923.97;;;8.11;93.50
70982;BME280;58640;51.320;9.456;2023-02-19T11:21:29;99921.88;;;8.59;90.98
70982;BME280;58640;51.320;9.456;2023-02-19T11:23:58;99920.44;;;8.65;90.23
70982;BME280;58640;51.320;9.456;2023-02-19T11:26:27;99917.75;;;8.65;90.10
70982;BME280;58640;51.320;9.456;2023-02-19T11:28:56;99905.81;;;8.77;89.10
70982;BME280;58640;51.320;9.456;2023-02-19T11:31:31;99907.34;;;8.79;84.93
70982;BME280;58640;51.320;9.456;2023-02-19T11:34:00;99918.88;;;8.45;86.39
70982;BME280;58640;51.320;9.456;2023-02-19T11:36:31;99916.38;;;8.07;87.34
70982;BME280;58640;51.320;9.456;2023-02-19T11:39:23;99921.91;;;8.32;86.19
70982;BME280;58640;51.320;9.456;2023-02-19T11:53:19;99951.53;;;7.94;88.01
70982;BME280;58640;51.320;9.456;2023-02-19T11:58:37;99953.63;;;8.00;89.67
70982;BME280;58640;51.320;9.456;2023-02-19T12:04:20;99954.09;;;7.86;92.43
70982;BME280;58640;51.320;9.456;2023-02-19T12:12:36;99947.69;;;7.60;94.57
70982;BME280;58640;51.320;9.456;2023-02-19T12:18:07;99936.66;;;8.09;92.01
70982;BME280;58640;51.320;9.456;2023-02-19T12:23:16;99929.34;;;8.38;
70982;BME280;58640;51.320;9.456;2023-02-19T12:29:21;99936.97;;;8.06;91.21
70982;BME280;58640;51.320;9.456;2023-02-19T12:32:03;99928.66;;;8.00;93.17
70982;BME280;58640;51.320;9.456;2023-02-19T12:43:29;99931.63;;;8.60;91.06
70982;BME280;58640;51.320;9.456;2023-02-19T12:46:00;99929.34;;;8.83;89.50
70982;BME280;58640;51.320;9.456;2023-02-19T12:48:35;99931.69;;;9.21;87.70
70982;BME280;58640;51.320;9.456;2023-02-19T12:53:39;99938.97;;;9.29;85.87
70982;BME280;58640;51.320;9.456;2023-02-19T12:56:15;99953.09;;;8.96;85.69
70982;BME280;58640;51.320;9.456;2023-02-19T12:58:48;99957.47;;;8.79;86.51
70982;BME280;58640;51.320;9.456;2023-02-19T13:01:22;99955.69;;;8.87;87.91
70982;BME280;58640;51.320;9.456;2023-02-19T13:05:18;99962.13;;;8.77;88.05
70982;BME280;58640;51.320;9.456;2023-02-19T13:08:10;99973.63;;;8.69;88.69
70982;BME280;58640;51.320;9.456;2023-02-19T13:10:43;99982.41;;;8.62;85.94
70982;BME280;58640;51.320;9.456;2023-02-19T13:13:22;99984.78;;;8.38;86.50
70982;BME280;58640;51.320;9.456;2023-02-19T13:15:52;99979.00;;;8.42;87.06
70982;BME280;58640;51.320;9.456;2023-02-19T13:18:28;99982.22;;;8.46;86.72
70982;BME280;58640;51.320;9.456;2023-02-19T13:20:55;99998.34;;;8.36;88.35
70982;BME280;58640;51.320;9.456;2023-02-19T13:23:24;100007.56;;;8.24;88.95
70982;BME280;58640;51.320;9.456;2023-02-19T13:26:37;100010.72;;;8.10;90.80
70982;BME280;58640;51.320;9.456;2023-02-19T13:32:14;100009.84;;;8.10;88.96
70982;BME280;58640;51.320;9.456;2023-02-19T13:37:31;100021.75;;;7.88;90.46
70982;BME280;58640;51.320;9.456;2023-02-19T13:40:02;100013.47;;;7.82;91.36
70982;BME280;58640;51.320;9.456;2023-02-19T13:42:33;100027.13;;;7.79;91.94
70982;BME280;58640;51.320;9.456;2023-02-19T13:45:01;100020.78;;;7.80;93.20
70982;BME280;58640;51.320;9.456;2023-02-19T13:50:23;100029.81;;;7.60;93.32
70982;BME280;58640;51.320;9.456;2023-02-19T13:52:49;100033.19;;;7.71;92.58
70982;BME280;58640;51.320;9.456;2023-02-19T13:58:53;100031.81;;;7.67;92.53
70982;BME280;58640;51.320;9.456;2023-02-19T14:04:23;100026.59;;;7.75;90.89
70982;BME280;58640;51.320;9.456;2023-02-19T14:14:54;100018.69;;;7.83;89.51
70982;BME280;58640;51.320;9.456;2023-02-19T14:17:49;100026.72;;;7.83;89.08
70982;BME280;58640;51.320;9.456;2023-02-19T14:33:34;100035.44;;;7.76;89.46
70982;BME280;58640;51.320;9.456;2023-02-19T14:36:05;100038.53;;;7.81;89.56
70982;BME280;58640;51.320;9.456;2023-02-19T14:38:42;100044.34;;;7.76;88.40
70982;BME280;58640;51.320;9.456;2023-02-19T14:41:12;100045.63;;;7.63;87.95
70982;BME280;58640;51.320;9.456;2023-02-19T14:43:39;100044.19;;;7.68;88.48
70982;BME280;58640;51.320;9.456;2023-02-19T14:46:16;100038.72;;;7.60;87.75
70982;BME280;58640;51.320;9.456;2023-02-19T14:48:47;100043.63;;;7.65;87.75
70982;BME280;58640;51.320;9.456;2023-02-19T14:51:27;100046.88;;;7.59;87.87
70982;BME280;58640;51.320;9.456;2023-02-19T14:53:56;100046.59;;;7.71;87.57
70982;BME280;58640;51.320;9.456;2023-02-19T14:56:29;100051.22;;;7.69;87.58
70982;BME280;58640;51.320;9.456;2023-02-19T14:59:21;100051.25;;;7.60;88.29
70982;BME280;58640;51.320;9.456;2023-02-19T15:01:59;100061.41;;;7.66;88.71
70982;BME280;58640;51.320;9.456;2023-02-19T15:04:28;100054.91;;;7.68;89.08
70982;BME280;58640;51.320;9.456;2023-02-19T15:06:56;100076.03;;;7.71;89.10
70982;BME280;58640;51.320;9.456;2023-02-19T15:09:29;100060.97;;;7.61;89.83
70982;BME280;58640;51.320;9.456;2023-02-19T15:11:55;100069.28;;;7.67;89.75
70982;BME280;58640;51.320;9.456;2023-02-19T15:14:22;100061.81;;;7.52;90.86
70982;BME280;58640;51.320;9.456;2023-02-19T15:16:56;100059.13;;;7.32;90.72
70982;BME280;58640;51.320;9.456;2023-02-19T15:19:22;100053.38;;;7.37;90.84
70982;BME280;58640;51.320;9.456;2023-02-19T15:21:48;100060.41;;;7.38;91.19
70982;BME280;58640;51.320;9.456;2023-02-19T15:24:15;100068.28;;;7.30;92.68
70982;BME280;58640;51.320;9.456;2023-02-19T15:26:52;100060.41;;;7.28;92.61
70982;BME280;58640;51.320;9.456;2023-02-19T15:29:22;100063.94;;;7.19;93.70
70982;BME280;58640;51.320;9.456;2023-02-19T15:31:53;100053.38;;;7.27;93.73
70982;BME280;58640;51.320;9.456;2023-02-19T15:34:21;100039.28;;;7.16;94.41
70982;BME280;58640;51.320;9.456;2023-02-19T15:36:57;100044.78;;;7.14;93.85
70982;BME280;58640;51.320;9.456;2023-02-19T15:39:28;100044.19;;;7.11;94.75
70982;BME280;58640;51.320;9.456;2023-02-19T15:41:56;100031.25;;;7.06;96.31
70982;BME280;58640;51.320;9.456;2023-02-19T15:47:01;100032.09;;;7.16;96.15
70982;BME280;58640;51.320;9.456;2023-02-19T15:49:43;100024.78;;;7.18;96.09
70982;BME280;58640;51.320;9.456;2023-02-19T15:52:19;100033.22;;;7.23;95.85
70982;BME280;58640;51.320;9.456;2023-02-19T15:54:53;100034.22;;;7.22;95.18
70982;BME280;58640;51.320;9.456;2023-02-19T15:57:27;100046.16;;;7.18;95.69
70982;BME280;58640;51.320;9.456;2023-02-19T16:00:05;100031.25;;;7.16;96.00
70982;BME280;58640;51.320;9.456;2023-02-19T16:02:35;100029.84;;;7.21;95.76
70982;BME280;58640;51.320;9.456;2023-02-19T16:05:10;100027.00;;;7.13;96.48
70982;BME280;58640;51.320;9.456;2023-02-19T16:07:36;100026.59;;;7.08;96.18
70982;BME280;58640;51.320;9.456;2023-02-19T16:10:17;100030.09;;;6.90;98.12
70982;BME280;58640;51.320;9.456;2023-02-19T16:12:53;100027.69;;;6.87;98.32
70982;BME280;58640;51.320;9.456;2023-02-19T16:15:19;100031.09;;;6.89;97.74
70982;BME280;58640;51.320;9.456;2023-02-19T16:17:45;100032.03;;;6.78;98.00
70982;BME280;58640;51.320;9.456;2023-02-19T16:20:20;100039.75;;;6.72;98.08
70982;BME280;58640;51.320;9.456;2023-02-19T16:22:46;100039.47;;;6.65;98.13
70982;BME280;58640;51.320;9.456;2023-02-19T16:25:26;100050.41;;;6.62;98.71
70982;BME280;58640;51.320;9.456;2023-02-19T16:27:52;100041.16;;;6.66;98.79
70982;BME280;58640;51.320;9.456;2023-02-19T16:30:31;100045.78;;;6.64;98.75
70982;BME280;58640;51.320;9.456;2023-02-19T16:35:48;100061.22;;;6.51;99.75
70982;BME280;58640;51.320;9.456;2023-02-19T16:38:16;100061.47;;;6.48;100.00
70982;BME280;58640;51.320;9.456;2023-02-19T16:45:40;100063.88;;;6.51;100.00
70982;BME280;58640;51.320;9.456;2023-02-19T16:48:07;100068.94;;;6.54;99.88
70982;BME280;58640;51.320;9.456;2023-02-19T16:50:33;100072.34;;;6.56;99.71
70982;BME280;58640;51.320;9.456;2023-02-19T16:53:00;100072.03;;;6.50;99.70
70982;BME280;58640;51.320;9.456;2023-02-19T16:55:27;100078.38;;;6.49;99.28
70982;BME280;58640;51.320;9.456;2023-02-19T16:57:53;100097.75;;;6.41;100.00
70982;BME280;58640;51.320;9.456;2023-02-19T17:00:37;100090.06;;;6.48;100.00
70982;BME280;58640;51.320;9.456;2023-02-19T17:03:06;100100.69;;;6.38;100.00
70982;BME280;58640;51.320;9.456;2023-02-19T17:05:34;100103.38;;;6.38;100.00
70982;BME280;58640;51.320;9.456;2023-02-19T17:08:01;100109.84;;;6.45;100.00
70982;BME280;58640;51.320;9.456;2023-02-19T17:10:27;100117.31;;;6.51;100.00
70982;BME280;58640;51.320;9.456;2023-02-19T17:12:53;100117.66;;;6.58;99.98
70982;BME280;58640;51.320;9.456;2023-02-19T17:15:20;100124.84;;;6.57;100.00
70982;BME280;58640;51.320;9.456;2023-02-19T17:17:45;100120.00;;;6.51;100.00
70982;BME280;58640;51.320;9.456;2023-02-19T17:20:22;100122.59;;;6.62;99.93
70982;BME280;58640;51.320;9.456;2023-02-19T17:22:51;100120.91;;;6.61;99.33
70982;BME280;58640;51.320;9.456;2023-02-19T17:25:17;100124.69;;;6.59;100.00
70982;BME280;58640;51.320;9.456;2023-02-19T17:27:42;100127.28;;;6.70;100.00
70982;BME280;58640;51.320;9.456;2023-02-19T17:30:15;100132.03;;;6.66;100.00
70982;BME280;58640;51.320;9.456;2023-02-19T17:32:42;100136.03;;;6.51;100.00
70982;BME280;58640;51.320;9.456;2023-02-19T17:35:07;100139.56;;;6.52;100.00
70982;BME280;58640;51.320;9.456;2023-02-19T17:37:33;100137.47;;;6.55;100.00
70982;BME280;58640;51.320;9.456;2023-02-19T17:39:58;100134.81;;;6.55;100.00
70982;BME280;58640;51.320;9.456;2023-02-19T17:42:23;100145.22;;;6.58;100.00
70982;BME280;58640;51.320;9.456;2023-02-19T17:44:50;100136.81;;;6.63;100.00
70982;BME280;58640;51.320;9.456;2023-02-19T17:47:17;100143.97;;;6.62;100.00
70982;BME280;58640;51.320;9.456;2023-02-19T17:49:43;100148.75;;;6.59;100.00
70982;BME280;58640;51.320;9.456;2023-02-19T17:52:08;100141.56;;;6.59;100.00
70982;BME280;58640;51.320;9.456;2023-02-19T17:54:34;100148.63;;;6.60;100.00
70982;BME280;58640;51.320;9.456;2023-02-19T17:57:00;100144.22;;;6.59;100.00